Terminal Aerodrome Forecast
Issued by NWS Chicago, IL

Home | Current Version | Previous Version | Text Only | Print | Product List | Glossary Off
Versions: 1 2 3 4 5 6 7 8 9 10 11 12 13 14 15 16 17 18 19 20 21 22 23 24

728
FTUS43 KLOT 280859 AAA
TAFRFD
TAF AMD
KRFD 280859Z 2809/2906 16011KT P6SM VCSH SCT025 BKN060
     FM281200 19013KT P6SM BKN040
     FM281500 19014G22KT P6SM SCT040 BKN250
     FM290000 20010KT P6SM VCSH BKN040
      TEMPO 2900/2903 3SM -TSRA BKN030CB=

USA.gov is the U.S. government's official web portal to all federal, state and local government web resources and services.